Time;durP1;ratioP1;P1;durP2;ratioP2;P2;SDS_P1;SDS_P2;PMS_P1;PMS_P2;Temp;Humidity;BMP_temperature;BMP_pressure;BME280_temperature;BME280_humidity;BME280_pressure;Samples;Min_cycle;Max_cycle;Signal;HPM_P1;HPM_P2
2022/09/15 04:58:04;;;;;;;;;;;;;;;20.70;76.64;96234.72;4222597;27;10346;-74
2022/09/15 05:00:22;;;;;;;;;;;;;;;21.00;76.09;96228.50;4215110;27;5658;-74
2022/09/15 05:02:24;;;;;;;;;;;;;;;21.20;75.24;96228.44;4230232;27;5718;-74
2022/09/15 05:04:28;;;;;;;;;;;;;;;21.34;75.05;96224.09;4219846;28;5833;-74
2022/09/15 05:06:32;;;;;;;;;;;;;;;21.48;74.64;96230.50;4228331;28;6311;-75
2022/09/15 05:08:35;;;;;;;;;;;;;;;21.59;74.34;96227.75;4226575;28;5624;-75
2022/09/15 05:10:38;;;;;;;;;;;;;;;21.69;73.47;96222.31;4215299;28;5630;-75
2022/09/15 05:12:41;;;;;;;;;;;;;;;21.77;73.48;96221.75;4223971;28;5611;-75
2022/09/15 05:14:45;;;;;;;;;;;;;;;21.82;72.93;96213.63;4226081;27;6366;-74
2022/09/15 05:16:47;;;;;;;;;;;;;;;21.84;72.99;96222.22;4221852;28;5690;-75
2022/09/15 05:18:51;;;;;;;;;;;;;;;21.89;72.62;96218.72;4221766;28;5849;-75
2022/09/15 05:20:58;;;;;;;;;;;;;;;21.94;72.77;96224.88;4221242;28;5715;-74
2022/09/15 05:23:00;;;;;;;;;;;;;;;21.98;72.14;96225.94;4217283;28;5638;-73
2022/09/15 05:25:04;;;;;;;;;;;;;;;22.00;72.26;96233.72;4224865;28;5615;-74
2022/09/15 05:27:07;;;;;;;;;;;;;;;22.01;71.94;96233.44;4220403;27;5646;-74
2022/09/15 05:29:09;;;;;;;;;;;;;;;22.06;71.96;96230.72;4219928;28;5925;-74
2022/09/15 05:31:17;;;;;;;;;;;;;;;22.10;71.60;96231.00;4218716;28;5611;-76
2022/09/15 05:33:21;;;;;;;;;;;;;;;22.14;71.61;96225.84;4217746;28;5707;-75
2022/09/15 05:35:24;;;;;;;;;;;;;;;22.17;71.42;96233.34;4219333;28;5810;-74
2022/09/15 05:37:26;;;;;;;;;;;;;;;22.18;71.05;96230.38;4222463;28;5631;-74
2022/09/15 05:39:29;;;;;;;;;;;;;;;22.20;71.30;96246.25;4218633;28;5687;-74
2022/09/15 05:41:32;;;;;;;;;;;;;;;22.22;71.36;96244.09;4224193;28;5624;-74
2022/09/15 05:43:36;;;;;;;;;;;;;;;22.26;71.16;96255.91;4230132;28;7675;-74
2022/09/15 05:45:41;;;;;;;;;;;;;;;22.29;70.53;96244.56;4231143;28;5623;-74
2022/09/15 05:47:46;;;;;;;;;;;;;;;22.32;70.48;96244.03;4230755;28;5792;-74
2022/09/15 05:49:49;;;;;;;;;;;;;;;22.34;70.92;96244.56;4231176;28;5616;-74
2022/09/15 05:51:51;;;;;;;;;;;;;;;22.36;70.99;96250.44;4212836;28;5704;-74
2022/09/15 05:53:54;;;;;;;;;;;;;;;22.38;70.60;96256.34;4231189;28;5703;-74
2022/09/15 05:55:58;;;;;;;;;;;;;;;22.39;70.39;96249.88;4227975;28;6045;-74
2022/09/15 05:58:01;;;;;;;;;;;;;;;22.39;70.81;96249.88;4221326;28;7703;-75
2022/09/15 06:00:04;;;;;;;;;;;;;;;22.38;70.79;96251.78;4230862;28;5761;-76
2022/09/15 06:02:08;;;;;;;;;;;;;;;22.41;70.58;96269.25;4230523;28;5773;-74
2022/09/15 06:04:13;;;;;;;;;;;;;;;22.43;70.47;96274.38;4230867;28;5687;-75
2022/09/15 06:06:16;;;;;;;;;;;;;;;22.43;70.04;96290.53;4230653;28;5673;-75
2022/09/15 06:08:21;;;;;;;;;;;;;;;22.39;70.04;96292.97;4225629;28;5687;-75
2022/09/15 06:10:36;;;;;;;;;;;;;;;22.35;70.19;96300.81;4219735;28;5696;-75
2022/09/15 06:12:40;;;;;;;;;;;;;;;22.37;69.78;96300.53;4219519;28;5764;-74
2022/09/15 06:14:44;;;;;;;;;;;;;;;22.35;69.69;96308.09;4219497;28;5798;-75
2022/09/15 06:16:47;;;;;;;;;;;;;;;22.37;69.91;96305.91;4219109;28;5658;-75
2022/09/15 06:18:52;;;;;;;;;;;;;;;22.38;69.41;96307.53;4219144;28;5680;-75
2022/09/15 06:20:56;;;;;;;;;;;;;;;22.42;69.36;96308.56;4219264;28;5728;-75
2022/09/15 06:22:59;;;;;;;;;;;;;;;22.44;69.39;96317.19;4219210;28;5688;-75
2022/09/15 06:25:01;;;;;;;;;;;;;;;22.46;68.98;96319.59;4219249;28;5736;-75
2022/09/15 06:27:04;;;;;;;;;;;;;;;22.46;69.09;96320.41;4219286;28;5799;-75
2022/09/15 06:29:07;;;;;;;;;;;;;;;22.46;69.20;96320.41;4219406;28;5661;-75
2022/09/15 06:31:14;;;;;;;;;;;;;;;22.46;69.28;96325.78;4219143;28;7122;-75
2022/09/15 06:33:17;;;;;;;;;;;;;;;22.46;68.77;96323.09;4200650;28;5654;-75
2022/09/15 06:35:20;;;;;;;;;;;;;;;22.44;68.96;96325.28;4202567;28;5712;-75
2022/09/15 06:37:24;;;;;;;;;;;;;;;22.44;68.80;96325.28;4202410;28;5709;-75
2022/09/15 06:39:34;;;;;;;;;;;;;;;22.34;68.65;96326.13;4201604;28;5792;-75
2022/09/15 06:41:37;;;;;;;;;;;;;;;22.32;68.99;96319.44;4210853;28;5676;-75
2022/09/15 06:44:01;;;;;;;;;;;;;;;22.35;68.56;96333.13;4219129;28;5688;-75
2022/09/15 06:46:06;;;;;;;;;;;;;;;22.39;68.86;96341.44;4218631;28;5751;-75
2022/09/15 06:48:10;;;;;;;;;;;;;;;22.42;68.86;96340.06;4218728;28;5683;-75
2022/09/15 06:50:26;;;;;;;;;;;;;;;22.41;68.79;96333.88;4206819;28;5958;-75
2022/09/15 06:52:30;;;;;;;;;;;;;;;22.43;68.19;96349.78;4202048;28;8417;-75
2022/09/15 06:54:33;;;;;;;;;;;;;;;22.44;68.14;96343.31;4214266;28;5660;-75
2022/09/15 06:56:36;;;;;;;;;;;;;;;22.43;68.16;96347.91;4218495;28;5698;-74
2022/09/15 06:58:43;;;;;;;;;;;;;;;22.41;68.02;96344.66;4218487;28;5792;-75
2022/09/15 07:00:46;;;;;;;;;;;;;;;22.36;68.33;96348.19;4218745;28;5676;-74
2022/09/15 07:02:50;;;;;;;;;;;;;;;22.37;68.25;96349.00;4218404;28;5685;-75
2022/09/15 07:04:53;;;;;;;;;;;;;;;22.37;68.06;96351.69;4218852;28;5677;-74
2022/09/15 07:06:57;;;;;;;;;;;;;;;22.38;67.92;96340.66;4218191;28;5692;-74
2022/09/15 07:09:01;;;;;;;;;;;;;;;22.42;68.14;96340.88;4218664;28;5665;-74
2022/09/15 07:11:04;;;;;;;;;;;;;;;22.44;68.15;96354.91;4218727;28;5767;-74
2022/09/15 07:13:07;;;;;;;;;;;;;;;22.46;67.72;96352.72;4218621;28;6357;-74
2022/09/15 07:15:11;;;;;;;;;;;;;;;22.50;68.09;96356.47;4218958;28;5767;-75
2022/09/15 07:17:15;;;;;;;;;;;;;;;22.50;67.54;96356.47;4217984;28;5811;-74
2022/09/15 07:19:19;;;;;;;;;;;;;;;22.52;67.48;96356.97;4218191;28;5085;-74
2022/09/15 07:21:22;;;;;;;;;;;;;;;22.54;67.49;96354.84;4217111;28;5736;-75
2022/09/15 07:23:26;;;;;;;;;;;;;;;22.56;67.58;96358.03;4218353;28;5673;-74
2022/09/15 07:25:30;;;;;;;;;;;;;;;22.58;67.61;96353.19;4217984;28;5660;-74
2022/09/15 07:27:33;;;;;;;;;;;;;;;22.62;67.74;96351.53;4218232;28;5724;-74
2022/09/15 07:29:37;;;;;;;;;;;;;;;22.64;67.37;96354.75;4218224;28;5700;-74
2022/09/15 07:31:40;;;;;;;;;;;;;;;22.69;67.29;96358.50;4218375;28;5868;-74
2022/09/15 07:33:46;;;;;;;;;;;;;;;22.70;67.11;96354.72;4216676;28;5633;-74
2022/09/15 07:35:51;;;;;;;;;;;;;;;22.72;67.08;96355.25;4218261;28;5660;-74
2022/09/15 07:37:54;;;;;;;;;;;;;;;22.74;67.17;96351.16;4217444;28;5772;-74
2022/09/15 07:39:56;;;;;;;;;;;;;;;22.75;67.16;96355.47;4218019;28;5688;-75
2022/09/15 07:42:01;;;;;;;;;;;;;;;22.76;67.19;96367.06;4218045;28;6355;-75
2022/09/15 07:44:07;;;;;;;;;;;;;;;22.76;66.70;96365.16;4218021;28;5768;-74
2022/09/15 07:46:09;;;;;;;;;;;;;;;22.79;66.69;96361.13;4218058;28;5672;-74
2022/09/15 07:48:13;;;;;;;;;;;;;;;22.78;66.64;96364.91;4217295;28;5724;-74
2022/09/15 07:50:16;;;;;;;;;;;;;;;22.80;66.92;96368.13;4217724;28;6930;-74
2022/09/15 07:52:19;;;;;;;;;;;;;;;22.82;66.93;96360.56;4217658;28;5684;-74
2022/09/15 07:54:22;;;;;;;;;;;;;;;22.84;66.92;96370.00;4216430;28;5743;-73
2022/09/15 07:56:25;;;;;;;;;;;;;;;22.85;66.77;96370.78;4217402;28;5668;-75
2022/09/15 07:58:29;;;;;;;;;;;;;;;22.84;66.55;96374.56;4217806;28;5679;-74
2022/09/15 08:00:32;;;;;;;;;;;;;;;22.81;66.20;96375.91;4217900;28;5767;-74
2022/09/15 08:02:35;;;;;;;;;;;;;;;22.83;66.40;96378.31;4217602;28;5693;-74
2022/09/15 08:04:40;;;;;;;;;;;;;;;22.86;66.42;96383.97;4216402;28;5612;-74
2022/09/15 08:06:42;;;;;;;;;;;;;;;22.89;66.59;96390.72;4217452;28;5685;-72
2022/09/15 08:08:46;;;;;;;;;;;;;;;22.89;66.47;96383.44;4217489;28;5680;-74
2022/09/15 08:10:49;;;;;;;;;;;;;;;22.91;66.22;96385.84;4217613;28;5801;-75
2022/09/15 08:12:54;;;;;;;;;;;;;;;22.92;66.52;96390.16;4217628;28;5673;-75
2022/09/15 08:14:59;;;;;;;;;;;;;;;22.91;66.50;96380.47;4217079;28;5684;-75
2022/09/15 08:17:03;;;;;;;;;;;;;;;22.93;65.98;96392.56;4217340;28;5673;-74
2022/09/15 08:19:13;;;;;;;;;;;;;;;22.94;66.18;96393.38;4217505;28;5664;-74
2022/09/15 08:21:20;;;;;;;;;;;;;;;22.95;65.68;96403.06;4217484;28;5681;-74
2022/09/15 08:23:23;;;;;;;;;;;;;;;22.95;65.74;96403.88;4217878;28;5664;-74
2022/09/15 08:25:26;;;;;;;;;;;;;;;22.98;65.64;96402.50;4217472;28;5673;-74
2022/09/15 08:27:29;;;;;;;;;;;;;;;23.01;66.06;96406.53;4217011;28;5669;-74
2022/09/15 08:29:34;;;;;;;;;;;;;;;23.02;65.53;96400.06;4217731;28;5773;-75
2022/09/15 08:31:39;;;;;;;;;;;;;;;23.06;65.69;96409.97;4217233;28;5688;-74
2022/09/15 08:33:42;;;;;;;;;;;;;;;23.07;65.82;96406.19;4217558;28;5680;-74
2022/09/15 08:35:47;;;;;;;;;;;;;;;23.08;65.43;96407.81;4217837;28;6343;-75
2022/09/15 08:37:53;;;;;;;;;;;;;;;23.06;65.86;96401.09;4217387;28;5684;-74
2022/09/15 08:39:56;;;;;;;;;;;;;;;23.08;65.42;96402.41;4216748;28;5835;-75
2022/09/15 08:42:02;;;;;;;;;;;;;;;23.10;65.60;96404.81;4217255;28;5852;-75
2022/09/15 08:44:19;;;;;;;;;;;;;;;23.11;65.27;96403.75;4217568;28;5677;-75
2022/09/15 08:46:27;;;;;;;;;;;;;;;23.12;65.27;96410.75;4217444;28;5676;-75
2022/09/15 08:48:39;;;;;;;;;;;;;;;23.13;64.92;96404.28;4217374;28;5676;-74
2022/09/15 08:50:51;;;;;;;;;;;;;;;23.14;65.06;96404.00;4217557;28;5814;-74
2022/09/15 08:53:00;;;;;;;;;;;;;;;23.16;64.98;96392.91;4217434;28;5751;-75
2022/09/15 08:55:13;;;;;;;;;;;;;;;23.18;64.87;96401.53;4217363;28;5839;-74
2022/09/15 08:57:21;;;;;;;;;;;;;;;23.19;64.96;96403.94;4217333;28;5813;-74
2022/09/15 08:59:34;;;;;;;;;;;;;;;23.22;64.53;96403.41;4217153;28;5696;-74
2022/09/15 09:01:50;;;;;;;;;;;;;;;23.24;64.84;96395.81;4216030;28;5636;-74
2022/09/15 09:04:21;;;;;;;;;;;;;;;23.26;64.32;96400.13;4216880;28;5732;-75
2022/09/15 09:06:36;;;;;;;;;;;;;;;23.30;64.65;96409.25;4217176;28;5763;-75
2022/09/15 09:09:06;;;;;;;;;;;;;;;23.29;64.39;96410.34;4208325;28;6499;-74
2022/09/15 09:11:26;;;;;;;;;;;;;;;23.33;64.19;96414.06;4208081;28;5803;-75
2022/09/15 09:13:37;;;;;;;;;;;;;;;23.31;64.50;96408.16;4217354;28;5675;-75
2022/09/15 09:15:46;;;;;;;;;;;;;;;;;;4217035;28;5678;-75
2022/09/15 09:18:07;;;;;;;;;;;;;;;23.30;64.15;96406.53;4215548;28;5811;-74
2022/09/15 09:20:23;;;;;;;;;;;;;;;23.30;63.99;96409.25;4217032;28;5656;-74
2022/09/15 09:22:29;;;;;;;;;;;;;;;;;;4217045;28;5691;-74
2022/09/15 09:24:36;;;;;;;;;;;;;;;23.31;63.85;96410.84;4216740;28;7159;-73
2022/09/15 09:26:39;;;;;;;;;;;;;;;23.29;64.22;96421.13;4217155;28;7194;-74
2022/09/15 09:28:47;;;;;;;;;;;;;;;23.30;63.85;96414.63;4216963;28;5734;-73
2022/09/15 09:30:50;;;;;;;;;;;;;;;23.29;63.76;96407.63;4215693;28;5628;-73
2022/09/15 09:33:04;;;;;;;;;;;;;;;23.29;63.94;96418.44;4216619;28;5671;-73
2022/09/15 09:35:18;;;;;;;;;;;;;;;23.27;63.64;96415.22;4217014;28;5671;-74
2022/09/15 09:37:23;;;;;;;;;;;;;;;23.28;63.86;96422.22;4216910;28;5683;-75
2022/09/15 09:39:29;;;;;;;;;;;;;;;23.29;63.28;96419.22;4216827;28;5671;-74
2022/09/15 09:41:35;;;;;;;;;;;;;;;23.30;63.85;96415.44;4215298;28;5746;-74
2022/09/15 09:43:38;;;;;;;;;;;;;;;23.33;63.40;96417.59;4201363;28;5696;-74
2022/09/15 09:45:44;;;;;;;;;;;;;;;23.35;63.53;96418.13;4201710;28;7311;-74
2022/09/15 09:47:47;;;;;;;;;;;;;;;23.38;63.48;96417.53;4203016;28;5775;-74
2022/09/15 09:49:50;;;;;;;;;;;;;;;23.40;63.44;96415.34;4203131;28;5700;-74
2022/09/15 09:51:56;;;;;;;;;;;;;;;23.41;63.58;96406.16;4203293;28;5689;-74
2022/09/15 09:54:15;;;;;;;;;;;;;;;23.45;63.15;96403.72;4203208;28;5803;-74
2022/09/15 09:56:23;;;;;;;;;;;;;;;23.47;63.25;96401.53;4206331;28;5676;-74
2022/09/15 09:58:26;;;;;;;;;;;;;;;23.49;63.03;96397.47;4219982;28;5739;-73
2022/09/15 10:00:32;;;;;;;;;;;;;;;23.51;62.93;96397.97;4219686;28;5656;-74
2022/09/15 10:02:46;;;;;;;;;;;;;;;23.53;62.97;96395.00;4219722;28;6551;-74
2022/09/15 10:04:53;;;;;;;;;;;;;;;23.56;63.23;96386.34;4219706;28;5692;-73
2022/09/15 10:06:57;;;;;;;;;;;;;;;23.60;62.94;96390.09;4218253;28;5695;-73
2022/09/15 10:09:04;;;;;;;;;;;;;;;23.61;63.27;96389.00;4219606;28;5656;-73
2022/09/15 10:11:10;;;;;;;;;;;;;;;23.62;62.79;96385.22;4219597;28;6247;-74
2022/09/15 10:13:12;;;;;;;;;;;;;;;23.64;63.08;96377.66;4219790;28;5666;-74
2022/09/15 10:15:23;;;;;;;;;;;;;;;23.68;62.97;96380.59;4218419;28;5684;-74
2022/09/15 10:17:38;;;;;;;;;;;;;;;23.72;62.95;96389.72;4202364;28;5692;-74
2022/09/15 10:19:46;;;;;;;;;;;;;;;23.72;62.62;96385.13;4213134;28;5660;-74
2022/09/15 10:21:49;;;;;;;;;;;;;;;23.72;62.54;96385.13;4219611;28;5671;-74
2022/09/15 10:23:53;;;;;;;;;;;;;;;23.73;62.73;96394.81;4219524;28;5751;-74
2022/09/15 10:25:58;;;;;;;;;;;;;;;23.76;62.44;96396.13;4219515;28;5681;-74
2022/09/15 10:28:14;;;;;;;;;;;;;;;23.79;62.37;96396.38;4219546;28;5680;-74
2022/09/15 10:30:18;;;;;;;;;;;;;;;23.81;62.26;96391.50;4219584;28;6382;-74
2022/09/15 10:32:27;;;;;;;;;;;;;;;23.84;62.70;96386.63;4219527;28;6456;-74
2022/09/15 10:34:32;;;;;;;;;;;;;;;23.87;62.10;96392.22;4219169;28;6395;-74
2022/09/15 10:36:35;;;;;;;;;;;;;;;23.86;62.44;96387.94;4219238;28;5677;-74
2022/09/15 10:38:42;;;;;;;;;;;;;;;23.85;62.12;96374.72;4219194;28;6348;-74
2022/09/15 10:40:54;;;;;;;;;;;;;;;23.88;62.48;96371.44;4218984;28;5771;-74
2022/09/15 10:43:05;;;;;;;;;;;;;;;23.91;62.48;96376.28;4219306;28;5676;-73
2022/09/15 10:45:17;;;;;;;;;;;;;;;23.92;62.25;96375.19;4219237;28;5743;-73
2022/09/15 10:47:29;;;;;;;;;;;;;;;23.91;62.03;96369.00;4218664;28;5664;-73
2022/09/15 10:49:52;;;;;;;;;;;;;;;23.90;62.34;96364.69;4219275;28;5672;-74
2022/09/15 10:52:06;;;;;;;;;;;;;;;23.87;62.06;96367.13;4219196;28;5688;-73
2022/09/15 10:54:28;;;;;;;;;;;;;;;23.77;62.23;96370.75;4219099;28;5894;-73
2022/09/15 10:56:36;;;;;;;;;;;;;;;23.72;62.11;96379.72;4218689;28;5675;-74
2022/09/15 10:58:53;;;;;;;;;;;;;;;23.71;62.10;96378.13;4203877;28;5677;-74
2022/09/15 11:01:12;;;;;;;;;;;;;;;23.74;62.00;96369.44;4219210;28;5728;-74
2022/09/15 11:03:40;;;;;;;;;;;;;;;23.78;62.39;96384.00;4218855;28;5763;-74
2022/09/15 11:05:59;;;;;;;;;;;;;;;23.80;62.27;96376.41;4218760;28;5759;-74
2022/09/15 11:08:17;;;;;;;;;;;;;;;23.81;62.03;96377.19;4218911;28;5683;-74
2022/09/15 11:10:28;;;;;;;;;;;;;;;23.84;62.09;96375.81;4218883;28;5689;-74
2022/09/15 11:12:46;;;;;;;;;;;;;;;23.85;61.92;96372.81;4218951;28;5742;-74
2022/09/15 11:15:04;;;;;;;;;;;;;;;23.85;61.97;96364.72;4218794;28;5681;-74
2022/09/15 11:17:20;;;;;;;;;;;;;;;23.82;61.85;96373.41;4218529;28;5664;-74
2022/09/15 11:19:52;;;;;;;;;;;;;;;23.78;61.84;96362.41;4218979;28;5691;-74
2022/09/15 11:21:58;;;;;;;;;;;;;;;23.77;61.84;96359.97;4218367;28;5752;-74
2022/09/15 11:24:22;;;;;;;;;;;;;;;23.80;62.02;96365.59;4218504;28;5687;-74
2022/09/15 11:26:33;;;;;;;;;;;;;;;23.83;61.83;96363.41;4218126;28;5676;-74
2022/09/15 11:28:42;;;;;;;;;;;;;;;23.87;61.99;96364.44;4218756;28;5696;-74
2022/09/15 11:30:53;;;;;;;;;;;;;;;23.89;61.88;96362.25;4218492;28;5755;-74
2022/09/15 11:33:00;;;;;;;;;;;;;;;23.89;61.72;96357.66;4216978;28;5702;-73
2022/09/15 11:35:25;;;;;;;;;;;;;;;23.91;62.15;96360.09;4218327;28;5715;-74
2022/09/15 11:37:36;;;;;;;;;;;;;;;23.91;62.11;96357.38;4218582;28;5663;-75
2022/09/15 11:39:46;;;;;;;;;;;;;;;23.91;62.03;96354.69;4218112;28;5689;-74
2022/09/15 11:41:55;;;;;;;;;;;;;;;23.91;62.07;96352.00;4218328;28;5715;-74
2022/09/15 11:44:13;;;;;;;;;;;;;;;23.89;61.87;96352.25;4218265;28;5797;-74
2022/09/15 11:46:25;;;;;;;;;;;;;;;23.91;61.93;96350.09;4217381;28;5748;-74
2022/09/15 11:48:35;;;;;;;;;;;;;;;23.92;61.75;96357.09;4213293;28;5675;-74
2022/09/15 11:50:44;;;;;;;;;;;;;;;23.96;61.66;96349.22;4204487;28;5901;-75
2022/09/15 11:52:55;;;;;;;;;;;;;;;23.97;61.51;96353.53;4200996;28;5699;-75
2022/09/15 11:55:03;;;;;;;;;;;;;;;23.96;61.58;96362.72;4200845;28;5816;-74
2022/09/15 11:57:18;;;;;;;;;;;;;;;23.98;61.65;96360.53;4212281;28;5669;-75
2022/09/15 11:59:31;;;;;;;;;;;;;;;23.97;61.71;96358.91;4217210;28;5688;-76
2022/09/15 12:01:43;;;;;;;;;;;;;;;23.97;61.66;96350.81;4214104;28;5941;-75
2022/09/15 12:03:51;;;;;;;;;;;;;;;23.98;62.00;96353.22;4217358;28;5657;-75
2022/09/15 12:05:57;;;;;;;;;;;;;;;24.01;61.64;96349.13;4216346;28;5093;-75
2022/09/15 12:08:04;;;;;;;;;;;;;;;24.00;61.71;96342.94;4212356;28;5701;-75
2022/09/15 12:10:15;;;;;;;;;;;;;;;24.03;62.04;96352.38;4201557;28;5685;-75
2022/09/15 12:12:20;;;;;;;;;;;;;;;24.04;61.82;96360.19;4218093;28;5448;-75
2022/09/15 12:14:32;;;;;;;;;;;;;;;24.04;61.57;96353.97;4217805;28;5856;-75
2022/09/15 12:16:37;;;;;;;;;;;;;;;24.03;61.67;96352.38;4217836;28;5695;-76
2022/09/15 12:18:47;;;;;;;;;;;;;;;24.02;61.60;96350.78;4217217;28;5785;-75
2022/09/15 12:20:55;;;;;;;;;;;;;;;23.98;61.87;96364.03;4217536;28;5793;-75
2022/09/15 12:23:10;;;;;;;;;;;;;;;23.94;61.67;96360.31;4217374;28;7688;-75
2022/09/15 12:25:19;;;;;;;;;;;;;;;23.90;61.58;96362.00;4217548;28;5770;-76
2022/09/15 12:27:22;;;;;;;;;;;;;;;23.90;61.56;96370.09;4217606;28;5687;-76
2022/09/15 12:29:38;;;;;;;;;;;;;;;23.87;61.97;96367.94;4217469;28;5676;-75
2022/09/15 12:31:44;;;;;;;;;;;;;;;23.86;61.83;96369.03;4218003;28;6517;-76
2022/09/15 12:33:54;;;;;;;;;;;;;;;23.84;61.93;96373.13;4210980;28;6350;-76
2022/09/15 12:36:34;;;;;;;;;;;;;;;23.78;62.07;96367.78;4207478;28;5683;-76
2022/09/15 12:38:37;;;;;;;;;;;;;;;23.76;61.98;96372.66;4216862;28;5675;-76
2022/09/15 12:40:40;;;;;;;;;;;;;;;23.71;62.37;96383.50;4217489;28;5876;-76
2022/09/15 12:42:46;;;;;;;;;;;;;;;23.67;62.36;96382.50;4217261;28;5652;-76
2022/09/15 12:44:54;;;;;;;;;;;;;;;23.62;62.59;96379.03;4215231;28;5641;-76
2022/09/15 12:46:59;;;;;;;;;;;;;;;23.59;62.57;96379.59;4215227;28;5691;-76
2022/09/15 12:49:03;;;;;;;;;;;;;;;23.57;62.45;96382.56;4209687;28;5698;-76
2022/09/15 12:51:09;;;;;;;;;;;;;;;23.56;62.54;96380.97;4211697;28;5743;-77
2022/09/15 12:53:18;;;;;;;;;;;;;;;23.58;62.79;96386.91;4200233;28;5700;-76
2022/09/15 12:55:25;;;;;;;;;;;;;;;23.56;63.12;96383.66;4200615;28;5695;-76
2022/09/15 12:57:32;;;;;;;;;;;;;;;23.55;62.61;96379.31;4199171;28;5833;-76
2022/09/15 12:59:34;;;;;;;;;;;;;;;23.56;62.78;96380.97;4209279;28;5751;-76
2022/09/15 13:01:48;;;;;;;;;;;;;;;23.57;63.00;96382.56;4216178;28;5745;-76
2022/09/15 13:04:27;;;;;;;;;;;;;;;23.57;63.07;96379.06;4216852;28;5781;-76
2022/09/15 13:06:33;;;;;;;;;;;;;;;23.57;63.37;96382.56;4205295;28;5905;-77
2022/09/15 13:08:46;;;;;;;;;;;;;;;23.59;63.35;96379.59;4216117;28;5703;-76
2022/09/15 13:11:02;;;;;;;;;;;;;;;23.60;63.48;96382.00;4217080;28;5675;-76
2022/09/15 13:13:17;;;;;;;;;;;;;;;23.63;63.36;96369.84;4201668;28;5969;-77
2022/09/15 13:15:23;;;;;;;;;;;;;;;23.65;63.80;96363.06;4206663;28;7801;-76
2022/09/15 13:17:29;;;;;;;;;;;;;;;23.70;63.64;96354.91;4207330;28;5689;-76
2022/09/15 13:19:41;;;;;;;;;;;;;;;23.75;63.67;96354.84;4203071;28;5696;-76
2022/09/15 13:21:48;;;;;;;;;;;;;;;23.74;63.48;96350.53;4216385;28;7671;-76
2022/09/15 13:23:53;;;;;;;;;;;;;;;23.77;63.89;96347.25;4212817;28;5667;-76
2022/09/15 13:26:00;;;;;;;;;;;;;;;23.76;63.71;96355.66;4220731;28;5774;-76
2022/09/15 13:28:04;;;;;;;;;;;;;;;23.75;64.01;96352.16;4220520;28;5699;-76
2022/09/15 13:30:30;;;;;;;;;;;;;;;23.76;63.75;96348.34;4219993;28;6340;-76
2022/09/15 13:32:42;;;;;;;;;;;;;;;23.79;64.05;96350.50;4220084;28;5730;-75
2022/09/15 13:35:16;;;;;;;;;;;;;;;23.81;64.00;96345.63;4217452;28;5690;-76
2022/09/15 13:37:56;;;;;;;;;;;;;;;23.84;64.07;96343.44;4211034;28;5949;-76
2022/09/15 13:40:48;;;;;;;;;;;;;;;23.87;64.10;96334.75;4206940;28;5689;-76
2022/09/15 13:43:03;;;;;;;;;;;;;;;23.86;63.74;96343.94;4208505;28;5700;-75
2022/09/15 13:45:28;;;;;;;;;;;;;;;23.87;63.99;96327.44;4217935;28;5676;-76
2022/09/15 13:47:47;;;;;;;;;;;;;;;23.87;63.84;96332.03;4180905;28;5753;-76
2022/09/15 13:49:55;;;;;;;;;;;;;;;23.85;63.97;96335.03;4205492;28;6360;-76
2022/09/15 13:52:03;;;;;;;;;;;;;;;23.87;63.84;96330.16;4203584;28;5697;-76
2022/09/15 13:54:15;;;;;;;;;;;;;;;23.89;63.73;96319.06;4202882;28;5737;-76
2022/09/15 13:56:23;;;;;;;;;;;;;;;23.90;63.62;96316.09;4201892;28;5646;-76
2022/09/15 13:58:26;;;;;;;;;;;;;;;23.90;63.91;96321.50;4202963;28;5700;-76
2022/09/15 14:00:59;;;;;;;;;;;;;;;23.87;63.41;96308.56;4218584;28;5721;-76
2022/09/15 14:03:10;;;;;;;;;;;;;;;23.89;63.66;96313.66;4206266;28;5726;-75
2022/09/15 14:05:14;;;;;;;;;;;;;;;23.88;63.41;96301.25;4203164;28;5693;-75
2022/09/15 14:07:23;;;;;;;;;;;;;;;23.88;63.71;96293.97;4202272;28;6055;-75
2022/09/15 14:09:29;;;;;;;;;;;;;;;23.90;63.71;96290.97;4209668;28;5717;-76
2022/09/15 14:11:35;;;;;;;;;;;;;;;23.92;63.66;96296.91;4211839;28;5691;-76
2022/09/15 14:13:43;;;;;;;;;;;;;;;23.95;63.13;96301.72;4203034;28;5720;-76
2022/09/15 14:15:56;;;;;;;;;;;;;;;23.97;63.16;96294.13;4201639;28;5817;-76
2022/09/15 14:17:59;;;;;;;;;;;;;;;23.99;63.13;96291.94;4201566;28;5828;-76
2022/09/15 14:20:16;;;;;;;;;;;;;;;24.00;62.95;96285.44;4201261;28;5689;-76
2022/09/15 14:22:26;;;;;;;;;;;;;;;24.00;63.22;96275.44;4200101;28;5717;-76
2022/09/15 14:24:31;;;;;;;;;;;;;;;24.03;63.26;96276.78;4204494;28;5818;-76
2022/09/15 14:26:35;;;;;;;;;;;;;;;24.02;62.90;96272.47;4203149;28;5795;-75
2022/09/15 14:28:42;;;;;;;;;;;;;;;24.01;63.17;96282.47;4210007;28;5671;-67
2022/09/15 14:30:47;;;;;;;;;;;;;;;24.00;63.21;96277.34;4203093;28;5863;-66
2022/09/15 14:32:54;;;;;;;;;;;;;;;24.00;62.83;96270.03;4211621;28;5669;-66
2022/09/15 14:34:59;;;;;;;;;;;;;;;24.03;63.00;96268.69;4206597;28;5689;-65
2022/09/15 14:37:07;;;;;;;;;;;;;;;24.04;63.15;96272.97;4209558;28;5713;-66
2022/09/15 14:39:20;;;;;;;;;;;;;;;24.04;62.87;96272.97;4201960;28;5847;-67
2022/09/15 14:41:31;;;;;;;;;;;;;;;24.06;62.85;96273.50;4209378;28;5624;-67
2022/09/15 14:43:37;;;;;;;;;;;;;;;24.08;62.83;96279.41;4212120;28;5729;-67
2022/09/15 14:45:42;;;;;;;;;;;;;;;24.07;63.22;96277.78;4200223;28;5689;-65
2022/09/15 14:48:06;;;;;;;;;;;;;;;24.06;62.93;96278.88;4214529;28;5723;-70
2022/09/15 14:50:13;;;;;;;;;;;;;;;24.02;62.62;96269.78;4211075;28;5765;-70
2022/09/15 14:52:31;;;;;;;;;;;;;;;23.93;63.17;96277.72;4212357;28;5663;-70
2022/09/15 14:54:37;;;;;;;;;;;;;;;23.88;63.24;96275.06;4201737;28;5784;-70
2022/09/15 14:56:42;;;;;;;;;;;;;;;23.85;62.94;96274.84;4203755;28;5928;-70
2022/09/15 14:58:50;;;;;;;;;;;;;;;23.83;63.35;96272.44;4207348;28;7775;-70
2022/09/15 15:01:00;;;;;;;;;;;;;;;23.80;63.12;96273.03;4205452;28;5712;-69
2022/09/15 15:03:12;;;;;;;;;;;;;;;23.77;63.21;96270.91;4209329;28;5682;-69
2022/09/15 15:05:24;;;;;;;;;;;;;;;23.69;63.35;96272.38;4212241;28;5679;-70
2022/09/15 15:07:32;;;;;;;;;;;;;;;23.67;63.65;96273.72;4212150;28;5679;-70
2022/09/15 15:09:40;;;;;;;;;;;;;;;23.64;63.36;96269.72;4211787;28;6226;-70
2022/09/15 15:11:43;;;;;;;;;;;;;;;23.63;63.89;96278.91;4212898;28;5867;-70
2022/09/15 15:13:49;;;;;;;;;;;;;;;23.67;63.68;96279.13;4204540;28;5686;-70
2022/09/15 15:15:54;;;;;;;;;;;;;;;23.64;63.81;96275.09;4208441;28;5929;-68
2022/09/15 15:17:57;;;;;;;;;;;;;;;23.60;63.98;96279.47;4217169;28;7719;-70
2022/09/15 15:20:12;;;;;;;;;;;;;;;23.57;64.20;96285.44;4212791;28;5671;-69
2022/09/15 15:22:19;;;;;;;;;;;;;;;23.54;64.51;96284.09;4204610;28;5778;-68
2022/09/15 15:24:24;;;;;;;;;;;;;;;23.55;64.45;96293.00;4209728;28;5759;-68
2022/09/15 15:26:34;;;;;;;;;;;;;;;23.56;64.38;96299.19;4206426;28;5708;-70
2022/09/15 15:28:38;;;;;;;;;;;;;;;23.53;64.24;96301.38;4204802;28;5742;-71
2022/09/15 15:30:46;;;;;;;;;;;;;;;23.50;64.39;96303.84;4206949;28;5742;-71
2022/09/15 15:32:49;;;;;;;;;;;;;;;23.48;64.73;96312.22;4205755;28;5817;-69
2022/09/15 15:34:54;;;;;;;;;;;;;;;23.49;64.82;96304.94;4200805;28;5630;-68
2022/09/15 15:37:02;;;;;;;;;;;;;;;23.51;64.88;96308.16;4214524;28;5895;-68
2022/09/15 15:39:07;;;;;;;;;;;;;;;23.50;64.82;96301.16;4199589;28;5783;-67
2022/09/15 15:41:20;;;;;;;;;;;;;;;23.50;64.93;96309.25;4206512;28;5690;-69
2022/09/15 15:43:26;;;;;;;;;;;;;;;23.51;64.83;96313.56;4203837;28;5722;-68
2022/09/15 15:45:30;;;;;;;;;;;;;;;23.52;65.27;96320.56;4203136;28;5675;-72
2022/09/15 15:47:36;;;;;;;;;;;;;;;23.52;65.14;96317.84;4207563;28;5761;-71
2022/09/15 15:49:39;;;;;;;;;;;;;;;23.51;65.47;96316.25;4204327;28;5700;-73
2022/09/15 15:52:02;;;;;;;;;;;;;;;23.49;65.54;96305.75;4206361;28;5659;-73
2022/09/15 15:54:05;;;;;;;;;;;;;;;23.47;65.49;96305.25;4206580;28;5078;-72
2022/09/15 15:56:08;;;;;;;;;;;;;;;23.46;65.48;96298.25;4204151;28;5685;-72
2022/09/15 15:58:14;;;;;;;;;;;;;;;23.44;65.75;96300.41;4210180;28;5675;-72
2022/09/15 16:00:21;;;;;;;;;;;;;;;23.43;65.80;96308.78;4204151;28;5725;-72
2022/09/15 16:02:25;;;;;;;;;;;;;;;23.41;66.02;96308.25;4208666;28;5965;-76
2022/09/15 16:04:29;;;;;;;;;;;;;;;23.38;65.99;96315.03;4199635;28;7501;-74
2022/09/15 16:06:33;;;;;;;;;;;;;;;23.35;65.89;96323.72;4200992;28;5697;-71
2022/09/15 16:08:38;;;;;;;;;;;;;;;;;;4204836;28;5792;-73
2022/09/15 16:10:47;;;;;;;;;;;;;;;23.29;66.35;96314.06;4204490;28;5774;-70
2022/09/15 16:12:52;;;;;;;;;;;;;;;23.28;66.64;96314.34;4206139;28;5685;-71
2022/09/15 16:14:56;;;;;;;;;;;;;;;23.26;66.12;96311.13;4203113;28;5784;-73